sensor_id;sensor_type;location;lat;lon;timestamp;P1;durP1;ratioP1;P2;durP2;ratioP2
908;SDS011;441;51.192;6.788;2023-02-01T00:00:19;15.60;;;15.10;;
908;SDS011;441;51.192;6.788;2023-02-01T00:02:46;15.70;;;15.20;;
908;SDS011;441;51.192;6.788;2023-02-01T00:05:13;16.00;;;15.50;;
908;SDS011;441;51.192;6.788;2023-02-01T00:07:40;16.07;;;15.60;;
908;SDS011;441;51.192;6.788;2023-02-01T00:10:08;16.20;;;15.70;;
908;SDS011;441;51.192;6.788;2023-02-01T00:12:35;16.70;;;16.20;;
908;SDS011;441;51.192;6.788;2023-02-01T00:15:02;16.20;;;15.70;;
908;SDS011;441;51.192;6.788;2023-02-01T00:17:30;15.70;;;15.23;;
908;SDS011;441;51.192;6.788;2023-02-01T00:19:57;17.13;;;16.53;;
908;SDS011;441;51.192;6.788;2023-02-01T00:22:24;16.63;;;16.03;;
908;SDS011;441;51.192;6.788;2023-02-01T00:24:51;16.57;;;16.07;;
908;SDS011;441;51.192;6.788;2023-02-01T00:27:18;15.97;;;15.47;;
908;SDS011;441;51.192;6.788;2023-02-01T00:29:46;16.43;;;15.83;;
908;SDS011;441;51.192;6.788;2023-02-01T00:32:13;16.43;;;15.93;;
908;SDS011;441;51.192;6.788;2023-02-01T00:34:41;16.50;;;15.90;;
908;SDS011;441;51.192;6.788;2023-02-01T00:37:08;16.40;;;15.80;;
908;SDS011;441;51.192;6.788;2023-02-01T00:39:35;16.13;;;15.63;;
908;SDS011;441;51.192;6.788;2023-02-01T00:42:02;16.93;;;16.43;;
908;SDS011;441;51.192;6.788;2023-02-01T00:44:28;16.13;;;15.63;;
908;SDS011;441;51.192;6.788;2023-02-01T00:46:58;16.13;;;15.63;;
908;SDS011;441;51.192;6.788;2023-02-01T00:49:26;16.37;;;15.87;;
908;SDS011;441;51.192;6.788;2023-02-01T00:51:54;16.43;;;15.83;;
908;SDS011;441;51.192;6.788;2023-02-01T00:54:21;16.10;;;15.60;;
908;SDS011;441;51.192;6.788;2023-02-01T00:56:48;16.77;;;16.13;;
908;SDS011;441;51.192;6.788;2023-02-01T00:59:14;17.00;;;16.23;;
908;SDS011;441;51.192;6.788;2023-02-01T01:01:41;16.23;;;15.73;;
908;SDS011;441;51.192;6.788;2023-02-01T01:04:08;16.03;;;15.50;;
908;SDS011;441;51.192;6.788;2023-02-01T01:06:35;16.33;;;15.73;;
908;SDS011;441;51.192;6.788;2023-02-01T01:09:04;16.10;;;15.60;;
908;SDS011;441;51.192;6.788;2023-02-01T01:11:33;16.30;;;15.70;;
908;SDS011;441;51.192;6.788;2023-02-01T01:14:02;16.30;;;15.80;;
908;SDS011;441;51.192;6.788;2023-02-01T01:16:30;15.80;;;15.30;;
908;SDS011;441;51.192;6.788;2023-02-01T01:18:57;16.23;;;15.73;;
908;SDS011;441;51.192;6.788;2023-02-01T01:21:25;16.80;;;16.20;;
908;SDS011;441;51.192;6.788;2023-02-01T01:23:53;15.67;;;15.20;;
908;SDS011;441;51.192;6.788;2023-02-01T01:26:22;15.83;;;15.43;;
908;SDS011;441;51.192;6.788;2023-02-01T01:28:50;16.53;;;16.03;;
908;SDS011;441;51.192;6.788;2023-02-01T01:31:18;15.73;;;15.23;;
908;SDS011;441;51.192;6.788;2023-02-01T01:33:47;16.00;;;15.50;;
908;SDS011;441;51.192;6.788;2023-02-01T01:36:14;16.40;;;15.90;;
908;SDS011;441;51.192;6.788;2023-02-01T01:38:41;16.27;;;15.77;;
908;SDS011;441;51.192;6.788;2023-02-01T01:41:08;16.20;;;15.70;;
908;SDS011;441;51.192;6.788;2023-02-01T01:43:47;16.43;;;15.93;;
908;SDS011;441;51.192;6.788;2023-02-01T01:46:17;16.00;;;15.50;;
908;SDS011;441;51.192;6.788;2023-02-01T01:48:45;16.40;;;15.80;;
908;SDS011;441;51.192;6.788;2023-02-01T01:51:17;16.80;;;16.10;;
908;SDS011;441;51.192;6.788;2023-02-01T01:53:47;16.20;;;15.70;;
908;SDS011;441;51.192;6.788;2023-02-01T01:56:19;16.27;;;15.77;;
908;SDS011;441;51.192;6.788;2023-02-01T01:58:47;16.00;;;15.50;;
908;SDS011;441;51.192;6.788;2023-02-01T02:01:14;15.70;;;15.30;;
908;SDS011;441;51.192;6.788;2023-02-01T02:03:42;16.30;;;15.80;;
908;SDS011;441;51.192;6.788;2023-02-01T02:06:11;16.40;;;15.83;;
908;SDS011;441;51.192;6.788;2023-02-01T02:08:44;16.57;;;15.97;;
908;SDS011;441;51.192;6.788;2023-02-01T02:11:11;16.13;;;15.63;;
908;SDS011;441;51.192;6.788;2023-02-01T02:13:41;16.43;;;15.93;;
908;SDS011;441;51.192;6.788;2023-02-01T02:16:19;15.97;;;15.37;;
908;SDS011;441;51.192;6.788;2023-02-01T02:19:22;16.30;;;15.63;;
908;SDS011;441;51.192;6.788;2023-02-01T02:22:14;15.50;;;15.03;;
908;SDS011;441;51.192;6.788;2023-02-01T02:24:59;16.50;;;15.90;;
908;SDS011;441;51.192;6.788;2023-02-01T02:27:58;16.30;;;15.80;;
908;SDS011;441;51.192;6.788;2023-02-01T02:30:40;15.70;;;15.20;;
908;SDS011;441;51.192;6.788;2023-02-01T02:33:32;16.80;;;16.30;;
908;SDS011;441;51.192;6.788;2023-02-01T02:36:15;16.00;;;15.50;;
908;SDS011;441;51.192;6.788;2023-02-01T02:38:48;16.37;;;15.77;;
908;SDS011;441;51.192;6.788;2023-02-01T02:41:24;16.33;;;15.83;;
908;SDS011;441;51.192;6.788;2023-02-01T02:44:26;16.30;;;15.80;;
908;SDS011;441;51.192;6.788;2023-02-01T02:47:17;17.07;;;16.50;;
908;SDS011;441;51.192;6.788;2023-02-01T02:49:54;16.20;;;15.60;;
908;SDS011;441;51.192;6.788;2023-02-01T02:52:46;16.37;;;15.87;;
908;SDS011;441;51.192;6.788;2023-02-01T02:55:34;15.87;;;15.37;;
908;SDS011;441;51.192;6.788;2023-02-01T02:58:05;16.73;;;16.13;;
908;SDS011;441;51.192;6.788;2023-02-01T03:00:51;15.97;;;15.50;;
908;SDS011;441;51.192;6.788;2023-02-01T03:03:36;15.87;;;15.37;;
908;SDS011;441;51.192;6.788;2023-02-01T03:06:23;16.33;;;15.83;;
908;SDS011;441;51.192;6.788;2023-02-01T03:08:51;16.40;;;15.80;;
908;SDS011;441;51.192;6.788;2023-02-01T03:11:23;17.07;;;16.50;;
908;SDS011;441;51.192;6.788;2023-02-01T03:14:11;16.87;;;16.37;;
908;SDS011;441;51.192;6.788;2023-02-01T03:16:41;16.37;;;15.77;;
908;SDS011;441;51.192;6.788;2023-02-01T03:19:14;16.03;;;15.43;;
908;SDS011;441;51.192;6.788;2023-02-01T03:21:47;16.57;;;16.07;;
908;SDS011;441;51.192;6.788;2023-02-01T03:24:20;15.93;;;15.43;;
908;SDS011;441;51.192;6.788;2023-02-01T03:26:58;15.73;;;15.23;;
908;SDS011;441;51.192;6.788;2023-02-01T03:29:31;16.40;;;15.90;;
908;SDS011;441;51.192;6.788;2023-02-01T03:32:03;16.23;;;15.73;;
908;SDS011;441;51.192;6.788;2023-02-01T03:34:30;16.47;;;15.87;;
908;SDS011;441;51.192;6.788;2023-02-01T03:36:59;16.47;;;15.97;;
908;SDS011;441;51.192;6.788;2023-02-01T03:39:29;17.00;;;15.97;;
908;SDS011;441;51.192;6.788;2023-02-01T03:42:01;16.37;;;15.80;;
908;SDS011;441;51.192;6.788;2023-02-01T03:44:31;16.63;;;16.13;;
908;SDS011;441;51.192;6.788;2023-02-01T03:47:02;16.37;;;15.77;;
908;SDS011;441;51.192;6.788;2023-02-01T03:49:33;16.00;;;15.50;;
908;SDS011;441;51.192;6.788;2023-02-01T03:52:04;16.80;;;15.97;;
908;SDS011;441;51.192;6.788;2023-02-01T03:54:35;16.60;;;16.00;;
908;SDS011;441;51.192;6.788;2023-02-01T03:57:05;17.10;;;16.50;;
908;SDS011;441;51.192;6.788;2023-02-01T03:59:35;17.20;;;16.50;;
908;SDS011;441;51.192;6.788;2023-02-01T04:02:04;16.40;;;15.90;;
908;SDS011;441;51.192;6.788;2023-02-01T04:04:31;16.70;;;16.20;;
908;SDS011;441;51.192;6.788;2023-02-01T04:06:59;16.60;;;16.00;;
908;SDS011;441;51.192;6.788;2023-02-01T04:09:28;16.23;;;15.63;;
908;SDS011;441;51.192;6.788;2023-02-01T04:11:55;16.87;;;16.10;;
908;SDS011;441;51.192;6.788;2023-02-01T04:14:22;16.30;;;15.80;;
908;SDS011;441;51.192;6.788;2023-02-01T04:16:48;16.43;;;15.83;;
908;SDS011;441;51.192;6.788;2023-02-01T04:19:15;17.03;;;16.43;;
908;SDS011;441;51.192;6.788;2023-02-01T04:21:42;17.10;;;16.30;;
908;SDS011;441;51.192;6.788;2023-02-01T04:24:09;16.70;;;16.10;;
908;SDS011;441;51.192;6.788;2023-02-01T04:26:37;16.73;;;16.13;;
908;SDS011;441;51.192;6.788;2023-02-01T04:29:04;16.53;;;16.03;;
908;SDS011;441;51.192;6.788;2023-02-01T04:31:31;16.70;;;16.10;;
908;SDS011;441;51.192;6.788;2023-02-01T04:33:57;17.30;;;16.43;;
908;SDS011;441;51.192;6.788;2023-02-01T04:36:24;16.20;;;15.70;;
908;SDS011;441;51.192;6.788;2023-02-01T04:38:51;16.77;;;16.10;;
908;SDS011;441;51.192;6.788;2023-02-01T04:41:18;16.60;;;15.90;;
908;SDS011;441;51.192;6.788;2023-02-01T04:43:49;16.63;;;16.03;;
908;SDS011;441;51.192;6.788;2023-02-01T04:46:17;17.00;;;16.30;;
908;SDS011;441;51.192;6.788;2023-02-01T04:48:44;17.53;;;16.93;;
908;SDS011;441;51.192;6.788;2023-02-01T04:51:11;16.83;;;16.23;;
908;SDS011;441;51.192;6.788;2023-02-01T04:53:38;16.90;;;16.40;;
908;SDS011;441;51.192;6.788;2023-02-01T04:56:05;16.90;;;16.40;;
908;SDS011;441;51.192;6.788;2023-02-01T04:58:32;17.47;;;16.63;;
908;SDS011;441;51.192;6.788;2023-02-01T05:01:03;17.60;;;17.00;;
908;SDS011;441;51.192;6.788;2023-02-01T05:03:30;17.90;;;17.30;;
908;SDS011;441;51.192;6.788;2023-02-01T05:05:57;17.33;;;16.63;;
908;SDS011;441;51.192;6.788;2023-02-01T05:08:24;17.47;;;16.87;;
908;SDS011;441;51.192;6.788;2023-02-01T05:10:52;17.93;;;17.23;;
908;SDS011;441;51.192;6.788;2023-02-01T05:13:19;17.47;;;16.80;;
908;SDS011;441;51.192;6.788;2023-02-01T05:16:05;17.83;;;16.93;;
908;SDS011;441;51.192;6.788;2023-02-01T05:18:32;17.10;;;16.40;;
908;SDS011;441;51.192;6.788;2023-02-01T05:20:59;17.97;;;17.23;;
908;SDS011;441;51.192;6.788;2023-02-01T05:23:26;17.20;;;16.60;;
908;SDS011;441;51.192;6.788;2023-02-01T05:25:57;17.93;;;17.33;;
908;SDS011;441;51.192;6.788;2023-02-01T05:28:24;17.77;;;17.07;;
908;SDS011;441;51.192;6.788;2023-02-01T05:30:51;17.80;;;17.20;;
908;SDS011;441;51.192;6.788;2023-02-01T05:33:19;18.90;;;18.13;;
908;SDS011;441;51.192;6.788;2023-02-01T05:35:46;18.00;;;17.40;;
908;SDS011;441;51.192;6.788;2023-02-01T05:38:13;18.20;;;17.30;;
908;SDS011;441;51.192;6.788;2023-02-01T05:40:40;19.03;;;17.90;;
908;SDS011;441;51.192;6.788;2023-02-01T05:43:07;18.90;;;18.10;;
908;SDS011;441;51.192;6.788;2023-02-01T05:45:33;21.30;;;20.10;;
908;SDS011;441;51.192;6.788;2023-02-01T05:48:00;18.80;;;17.80;;
908;SDS011;441;51.192;6.788;2023-02-01T05:50:28;18.33;;;17.33;;
908;SDS011;441;51.192;6.788;2023-02-01T05:52:55;19.50;;;18.40;;
908;SDS011;441;51.192;6.788;2023-02-01T05:55:22;19.70;;;18.30;;
908;SDS011;441;51.192;6.788;2023-02-01T05:57:49;23.20;;;21.50;;
908;SDS011;441;51.192;6.788;2023-02-01T06:00:16;20.27;;;19.37;;
908;SDS011;441;51.192;6.788;2023-02-01T06:02:43;20.07;;;18.77;;
908;SDS011;441;51.192;6.788;2023-02-01T06:05:10;20.83;;;19.40;;
908;SDS011;441;51.192;6.788;2023-02-01T06:07:38;21.10;;;19.70;;
908;SDS011;441;51.192;6.788;2023-02-01T06:10:05;18.57;;;17.70;;
908;SDS011;441;51.192;6.788;2023-02-01T06:12:33;19.40;;;18.30;;
908;SDS011;441;51.192;6.788;2023-02-01T06:15:00;19.30;;;18.23;;
908;SDS011;441;51.192;6.788;2023-02-01T06:17:26;18.97;;;17.97;;
908;SDS011;441;51.192;6.788;2023-02-01T06:19:53;18.43;;;17.53;;
908;SDS011;441;51.192;6.788;2023-02-01T06:22:20;18.90;;;18.07;;
908;SDS011;441;51.192;6.788;2023-02-01T06:24:48;18.67;;;17.77;;
908;SDS011;441;51.192;6.788;2023-02-01T06:27:15;18.80;;;17.90;;
908;SDS011;441;51.192;6.788;2023-02-01T06:29:42;19.40;;;18.17;;
908;SDS011;441;51.192;6.788;2023-02-01T06:32:09;19.60;;;18.30;;
908;SDS011;441;51.192;6.788;2023-02-01T06:34:36;19.33;;;18.40;;
908;SDS011;441;51.192;6.788;2023-02-01T06:37:04;19.00;;;17.90;;
908;SDS011;441;51.192;6.788;2023-02-01T06:39:31;18.70;;;17.80;;
908;SDS011;441;51.192;6.788;2023-02-01T06:41:59;19.13;;;18.13;;
908;SDS011;441;51.192;6.788;2023-02-01T06:44:26;18.50;;;17.70;;
908;SDS011;441;51.192;6.788;2023-02-01T06:46:53;18.87;;;17.93;;
908;SDS011;441;51.192;6.788;2023-02-01T06:49:20;18.33;;;17.53;;
908;SDS011;441;51.192;6.788;2023-02-01T06:51:46;19.83;;;18.80;;
908;SDS011;441;51.192;6.788;2023-02-01T06:54:13;18.43;;;17.47;;
908;SDS011;441;51.192;6.788;2023-02-01T06:56:40;18.77;;;17.97;;
908;SDS011;441;51.192;6.788;2023-02-01T06:59:09;19.27;;;18.27;;
908;SDS011;441;51.192;6.788;2023-02-01T07:01:37;18.73;;;17.93;;
908;SDS011;441;51.192;6.788;2023-02-01T07:04:04;19.60;;;18.77;;
908;SDS011;441;51.192;6.788;2023-02-01T07:06:31;19.87;;;18.60;;
908;SDS011;441;51.192;6.788;2023-02-01T07:08:57;18.90;;;18.10;;
908;SDS011;441;51.192;6.788;2023-02-01T07:11:25;19.63;;;18.77;;
908;SDS011;441;51.192;6.788;2023-02-01T07:13:53;18.60;;;17.87;;
908;SDS011;441;51.192;6.788;2023-02-01T07:16:21;18.97;;;18.00;;
908;SDS011;441;51.192;6.788;2023-02-01T07:18:49;19.63;;;18.73;;
908;SDS011;441;51.192;6.788;2023-02-01T07:21:17;18.83;;;17.93;;
908;SDS011;441;51.192;6.788;2023-02-01T07:23:44;19.30;;;18.43;;
908;SDS011;441;51.192;6.788;2023-02-01T07:26:11;19.60;;;18.60;;
908;SDS011;441;51.192;6.788;2023-02-01T07:28:41;18.83;;;17.83;;
908;SDS011;441;51.192;6.788;2023-02-01T07:31:09;18.23;;;17.53;;
908;SDS011;441;51.192;6.788;2023-02-01T07:33:39;19.00;;;18.10;;
908;SDS011;441;51.192;6.788;2023-02-01T07:36:08;18.70;;;17.87;;
908;SDS011;441;51.192;6.788;2023-02-01T07:38:37;20.30;;;19.40;;
908;SDS011;441;51.192;6.788;2023-02-01T07:41:05;18.90;;;18.10;;
908;SDS011;441;51.192;6.788;2023-02-01T07:43:33;18.40;;;17.60;;
908;SDS011;441;51.192;6.788;2023-02-01T07:46:00;18.60;;;17.80;;
908;SDS011;441;51.192;6.788;2023-02-01T07:48:28;18.27;;;17.57;;
908;SDS011;441;51.192;6.788;2023-02-01T07:51:01;19.67;;;18.87;;
908;SDS011;441;51.192;6.788;2023-02-01T07:53:29;19.23;;;18.23;;
908;SDS011;441;51.192;6.788;2023-02-01T07:55:57;18.77;;;17.90;;
908;SDS011;441;51.192;6.788;2023-02-01T07:58:25;17.90;;;17.23;;
908;SDS011;441;51.192;6.788;2023-02-01T08:00:52;19.63;;;18.73;;
908;SDS011;441;51.192;6.788;2023-02-01T08:03:38;18.70;;;17.90;;
908;SDS011;441;51.192;6.788;2023-02-01T08:06:06;18.80;;;18.10;;
908;SDS011;441;51.192;6.788;2023-02-01T08:08:33;19.37;;;18.57;;
908;SDS011;441;51.192;6.788;2023-02-01T08:11:00;18.57;;;17.87;;
908;SDS011;441;51.192;6.788;2023-02-01T08:13:28;19.13;;;18.33;;
908;SDS011;441;51.192;6.788;2023-02-01T08:15:57;19.13;;;18.43;;
908;SDS011;441;51.192;6.788;2023-02-01T08:18:24;18.17;;;17.53;;
908;SDS011;441;51.192;6.788;2023-02-01T08:20:51;20.27;;;19.37;;
908;SDS011;441;51.192;6.788;2023-02-01T08:23:19;19.93;;;19.00;;
908;SDS011;441;51.192;6.788;2023-02-01T08:25:47;18.93;;;18.07;;
908;SDS011;441;51.192;6.788;2023-02-01T08:28:14;19.93;;;18.97;;
908;SDS011;441;51.192;6.788;2023-02-01T08:30:41;18.80;;;18.10;;
908;SDS011;441;51.192;6.788;2023-02-01T08:33:08;18.50;;;17.87;;
908;SDS011;441;51.192;6.788;2023-02-01T08:35:36;18.10;;;17.40;;
908;SDS011;441;51.192;6.788;2023-02-01T08:38:03;18.00;;;17.20;;
908;SDS011;441;51.192;6.788;2023-02-01T08:40:32;18.20;;;17.50;;
908;SDS011;441;51.192;6.788;2023-02-01T08:42:59;18.40;;;17.70;;
908;SDS011;441;51.192;6.788;2023-02-01T08:45:27;18.00;;;17.30;;
908;SDS011;441;51.192;6.788;2023-02-01T08:47:55;18.70;;;17.60;;
908;SDS011;441;51.192;6.788;2023-02-01T08:50:22;19.30;;;18.60;;
908;SDS011;441;51.192;6.788;2023-02-01T08:52:50;17.90;;;17.30;;
908;SDS011;441;51.192;6.788;2023-02-01T08:55:17;19.37;;;18.47;;
908;SDS011;441;51.192;6.788;2023-02-01T08:57:45;18.23;;;17.50;;
908;SDS011;441;51.192;6.788;2023-02-01T09:00:14;18.20;;;17.50;;
908;SDS011;441;51.192;6.788;2023-02-01T09:02:41;19.00;;;18.13;;
908;SDS011;441;51.192;6.788;2023-02-01T09:05:08;18.10;;;17.40;;
908;SDS011;441;51.192;6.788;2023-02-01T09:07:35;18.40;;;17.70;;
908;SDS011;441;51.192;6.788;2023-02-01T09:10:03;19.10;;;18.30;;
908;SDS011;441;51.192;6.788;2023-02-01T09:12:30;18.37;;;17.73;;
908;SDS011;441;51.192;6.788;2023-02-01T09:15:00;19.23;;;18.50;;
908;SDS011;441;51.192;6.788;2023-02-01T09:17:27;18.83;;;18.13;;
908;SDS011;441;51.192;6.788;2023-02-01T09:19:55;18.33;;;17.63;;
908;SDS011;441;51.192;6.788;2023-02-01T09:22:22;18.27;;;17.57;;
908;SDS011;441;51.192;6.788;2023-02-01T09:24:49;18.70;;;17.90;;
908;SDS011;441;51.192;6.788;2023-02-01T09:27:16;18.43;;;17.83;;
908;SDS011;441;51.192;6.788;2023-02-01T09:29:43;19.60;;;18.73;;
908;SDS011;441;51.192;6.788;2023-02-01T09:32:11;18.57;;;17.87;;
908;SDS011;441;51.192;6.788;2023-02-01T09:34:37;18.77;;;18.07;;
908;SDS011;441;51.192;6.788;2023-02-01T09:37:04;18.80;;;18.10;;
908;SDS011;441;51.192;6.788;2023-02-01T09:39:31;18.40;;;17.67;;
908;SDS011;441;51.192;6.788;2023-02-01T09:41:59;18.53;;;17.83;;
908;SDS011;441;51.192;6.788;2023-02-01T09:44:43;19.23;;;18.50;;
908;SDS011;441;51.192;6.788;2023-02-01T09:47:24;18.63;;;17.93;;
908;SDS011;441;51.192;6.788;2023-02-01T09:49:54;18.23;;;17.43;;
908;SDS011;441;51.192;6.788;2023-02-01T09:52:27;18.57;;;17.77;;
908;SDS011;441;51.192;6.788;2023-02-01T09:55:01;18.40;;;17.70;;
908;SDS011;441;51.192;6.788;2023-02-01T09:57:39;18.97;;;18.27;;
908;SDS011;441;51.192;6.788;2023-02-01T10:00:16;18.30;;;17.60;;
908;SDS011;441;51.192;6.788;2023-02-01T10:02:47;18.50;;;17.80;;
908;SDS011;441;51.192;6.788;2023-02-01T10:05:16;19.43;;;18.57;;
908;SDS011;441;51.192;6.788;2023-02-01T10:07:57;18.50;;;17.70;;
908;SDS011;441;51.192;6.788;2023-02-01T10:10:30;18.20;;;17.50;;
908;SDS011;441;51.192;6.788;2023-02-01T10:16:01;20.30;;;18.80;;
908;SDS011;441;51.192;6.788;2023-02-01T10:18:44;19.20;;;18.40;;
908;SDS011;441;51.192;6.788;2023-02-01T10:21:28;18.60;;;17.83;;
908;SDS011;441;51.192;6.788;2023-02-01T10:27:07;19.50;;;18.80;;
908;SDS011;441;51.192;6.788;2023-02-01T10:29:39;19.30;;;18.37;;
908;SDS011;441;51.192;6.788;2023-02-01T10:32:11;19.23;;;18.43;;
908;SDS011;441;51.192;6.788;2023-02-01T10:34:41;19.43;;;18.63;;
908;SDS011;441;51.192;6.788;2023-02-01T10:37:16;19.20;;;18.50;;
908;SDS011;441;51.192;6.788;2023-02-01T10:39:49;19.57;;;18.77;;
908;SDS011;441;51.192;6.788;2023-02-01T10:42:20;19.97;;;19.13;;
908;SDS011;441;51.192;6.788;2023-02-01T10:44:50;19.57;;;18.73;;
908;SDS011;441;51.192;6.788;2023-02-01T10:47:17;18.97;;;18.27;;
908;SDS011;441;51.192;6.788;2023-02-01T10:49:47;19.20;;;18.30;;
908;SDS011;441;51.192;6.788;2023-02-01T10:52:21;18.97;;;18.27;;
908;SDS011;441;51.192;6.788;2023-02-01T10:54:57;19.20;;;18.40;;
908;SDS011;441;51.192;6.788;2023-02-01T10:57:59;19.47;;;18.67;;
908;SDS011;441;51.192;6.788;2023-02-01T11:00:27;19.07;;;18.30;;
908;SDS011;441;51.192;6.788;2023-02-01T11:03:00;18.80;;;18.00;;
908;SDS011;441;51.192;6.788;2023-02-01T11:05:33;19.03;;;18.03;;
908;SDS011;441;51.192;6.788;2023-02-01T11:08:12;19.80;;;18.87;;
908;SDS011;441;51.192;6.788;2023-02-01T11:10:42;19.23;;;18.40;;
908;SDS011;441;51.192;6.788;2023-02-01T11:13:11;19.37;;;18.60;;
908;SDS011;441;51.192;6.788;2023-02-01T11:15:43;19.10;;;18.30;;
908;SDS011;441;51.192;6.788;2023-02-01T11:18:15;19.50;;;18.70;;
908;SDS011;441;51.192;6.788;2023-02-01T11:20:46;19.43;;;18.73;;
908;SDS011;441;51.192;6.788;2023-02-01T11:23:15;19.20;;;18.50;;
908;SDS011;441;51.192;6.788;2023-02-01T11:25:49;19.00;;;18.30;;
908;SDS011;441;51.192;6.788;2023-02-01T11:28:18;20.13;;;19.33;;
908;SDS011;441;51.192;6.788;2023-02-01T11:30:49;20.53;;;19.40;;
908;SDS011;441;51.192;6.788;2023-02-01T11:33:19;20.00;;;19.10;;
908;SDS011;441;51.192;6.788;2023-02-01T11:35:51;19.27;;;18.47;;
908;SDS011;441;51.192;6.788;2023-02-01T11:38:21;19.60;;;18.80;;
908;SDS011;441;51.192;6.788;2023-02-01T11:41:10;20.10;;;19.23;;
908;SDS011;441;51.192;6.788;2023-02-01T11:43:49;19.33;;;18.50;;
908;SDS011;441;51.192;6.788;2023-02-01T11:46:22;19.30;;;18.60;;
908;SDS011;441;51.192;6.788;2023-02-01T11:48:53;19.53;;;18.77;;
908;SDS011;441;51.192;6.788;2023-02-01T11:51:32;19.00;;;18.30;;
908;SDS011;441;51.192;6.788;2023-02-01T11:54:18;19.50;;;18.80;;
908;SDS011;441;51.192;6.788;2023-02-01T11:57:03;19.40;;;18.70;;
908;SDS011;441;51.192;6.788;2023-02-01T11:59:49;19.77;;;18.93;;
908;SDS011;441;51.192;6.788;2023-02-01T12:02:40;19.37;;;18.57;;
908;SDS011;441;51.192;6.788;2023-02-01T12:05:46;19.10;;;18.30;;
908;SDS011;441;51.192;6.788;2023-02-01T12:08:34;19.60;;;18.80;;
908;SDS011;441;51.192;6.788;2023-02-01T12:11:24;19.90;;;19.10;;
908;SDS011;441;51.192;6.788;2023-02-01T12:14:01;19.20;;;18.50;;
908;SDS011;441;51.192;6.788;2023-02-01T12:16:44;19.70;;;18.90;;
908;SDS011;441;51.192;6.788;2023-02-01T12:19:23;19.73;;;18.93;;
908;SDS011;441;51.192;6.788;2023-02-01T12:22:08;19.30;;;18.60;;
908;SDS011;441;51.192;6.788;2023-02-01T12:24:52;19.00;;;18.30;;
908;SDS011;441;51.192;6.788;2023-02-01T12:27:51;20.17;;;19.37;;
908;SDS011;441;51.192;6.788;2023-02-01T12:30:40;18.80;;;18.10;;
908;SDS011;441;51.192;6.788;2023-02-01T12:33:28;19.30;;;18.40;;
908;SDS011;441;51.192;6.788;2023-02-01T12:36:10;18.90;;;18.20;;
908;SDS011;441;51.192;6.788;2023-02-01T12:38:46;19.13;;;18.33;;
908;SDS011;441;51.192;6.788;2023-02-01T12:41:23;19.40;;;18.60;;
908;SDS011;441;51.192;6.788;2023-02-01T12:44:11;19.43;;;18.73;;
908;SDS011;441;51.192;6.788;2023-02-01T12:46:45;19.23;;;18.53;;
908;SDS011;441;51.192;6.788;2023-02-01T12:49:17;19.40;;;18.70;;
908;SDS011;441;51.192;6.788;2023-02-01T12:51:50;19.33;;;18.60;;
908;SDS011;441;51.192;6.788;2023-02-01T12:54:21;19.77;;;18.83;;
908;SDS011;441;51.192;6.788;2023-02-01T12:56:55;19.40;;;18.70;;
908;SDS011;441;51.192;6.788;2023-02-01T12:59:27;19.93;;;19.03;;
908;SDS011;441;51.192;6.788;2023-02-01T13:02:01;19.30;;;18.60;;
908;SDS011;441;51.192;6.788;2023-02-01T13:04:42;19.13;;;18.33;;
908;SDS011;441;51.192;6.788;2023-02-01T13:07:18;19.30;;;18.60;;
908;SDS011;441;51.192;6.788;2023-02-01T13:09:47;19.10;;;18.40;;
908;SDS011;441;51.192;6.788;2023-02-01T13:12:20;19.40;;;18.70;;
908;SDS011;441;51.192;6.788;2023-02-01T13:14:52;20.03;;;19.23;;
908;SDS011;441;51.192;6.788;2023-02-01T13:17:25;19.30;;;18.50;;
908;SDS011;441;51.192;6.788;2023-02-01T13:19:54;19.13;;;18.33;;
908;SDS011;441;51.192;6.788;2023-02-01T13:22:25;19.20;;;18.50;;
908;SDS011;441;51.192;6.788;2023-02-01T13:24:56;19.33;;;18.63;;
908;SDS011;441;51.192;6.788;2023-02-01T13:27:28;19.30;;;18.60;;
908;SDS011;441;51.192;6.788;2023-02-01T13:29:56;18.30;;;17.70;;
908;SDS011;441;51.192;6.788;2023-02-01T13:32:33;19.00;;;18.10;;
908;SDS011;441;51.192;6.788;2023-02-01T13:38:29;20.00;;;19.10;;
908;SDS011;441;51.192;6.788;2023-02-01T13:41:11;20.20;;;19.30;;
908;SDS011;441;51.192;6.788;2023-02-01T13:43:53;18.77;;;18.17;;
908;SDS011;441;51.192;6.788;2023-02-01T13:46:22;19.10;;;18.40;;
908;SDS011;441;51.192;6.788;2023-02-01T13:48:50;19.00;;;18.10;;
908;SDS011;441;51.192;6.788;2023-02-01T13:51:28;19.73;;;18.93;;
908;SDS011;441;51.192;6.788;2023-02-01T13:54:00;19.33;;;18.63;;
908;SDS011;441;51.192;6.788;2023-02-01T13:56:27;19.40;;;18.57;;
908;SDS011;441;51.192;6.788;2023-02-01T13:58:55;19.57;;;18.77;;
908;SDS011;441;51.192;6.788;2023-02-01T14:01:33;18.73;;;18.13;;
908;SDS011;441;51.192;6.788;2023-02-01T14:04:01;19.80;;;19.00;;
908;SDS011;441;51.192;6.788;2023-02-01T14:06:38;18.80;;;18.10;;
908;SDS011;441;51.192;6.788;2023-02-01T14:09:13;19.73;;;18.70;;
908;SDS011;441;51.192;6.788;2023-02-01T14:11:46;19.53;;;18.73;;
908;SDS011;441;51.192;6.788;2023-02-01T14:23:14;18.63;;;17.90;;
908;SDS011;441;51.192;6.788;2023-02-01T14:25:43;18.43;;;17.73;;
908;SDS011;441;51.192;6.788;2023-02-01T14:28:21;18.80;;;18.00;;
908;SDS011;441;51.192;6.788;2023-02-01T14:30:52;18.77;;;18.07;;
908;SDS011;441;51.192;6.788;2023-02-01T14:33:21;19.40;;;18.70;;
908;SDS011;441;51.192;6.788;2023-02-01T14:36:01;18.87;;;18.07;;
908;SDS011;441;51.192;6.788;2023-02-01T14:38:32;18.93;;;18.33;;
908;SDS011;441;51.192;6.788;2023-02-01T14:41:12;18.97;;;18.17;;
908;SDS011;441;51.192;6.788;2023-02-01T14:43:51;18.83;;;18.23;;
908;SDS011;441;51.192;6.788;2023-02-01T14:49:48;18.90;;;18.20;;
908;SDS011;441;51.192;6.788;2023-02-01T14:52:20;18.70;;;18.00;;
908;SDS011;441;51.192;6.788;2023-02-01T14:54:55;18.33;;;17.67;;
908;SDS011;441;51.192;6.788;2023-02-01T14:57:27;18.73;;;18.00;;
908;SDS011;441;51.192;6.788;2023-02-01T14:59:59;18.80;;;18.10;;
908;SDS011;441;51.192;6.788;2023-02-01T15:02:32;19.10;;;18.40;;
908;SDS011;441;51.192;6.788;2023-02-01T15:05:16;18.63;;;17.93;;
908;SDS011;441;51.192;6.788;2023-02-01T15:07:54;19.17;;;18.37;;
908;SDS011;441;51.192;6.788;2023-02-01T15:10:23;18.57;;;17.97;;
908;SDS011;441;51.192;6.788;2023-02-01T15:12:50;19.43;;;18.73;;
908;SDS011;441;51.192;6.788;2023-02-01T15:15:18;19.00;;;18.20;;
908;SDS011;441;51.192;6.788;2023-02-01T15:17:50;19.50;;;18.70;;
908;SDS011;441;51.192;6.788;2023-02-01T15:20:20;20.00;;;19.20;;
908;SDS011;441;51.192;6.788;2023-02-01T15:22:52;18.97;;;18.27;;
908;SDS011;441;51.192;6.788;2023-02-01T15:25:21;19.63;;;18.73;;
908;SDS011;441;51.192;6.788;2023-02-01T15:27:50;18.83;;;18.13;;
908;SDS011;441;51.192;6.788;2023-02-01T15:30:18;18.93;;;18.13;;
908;SDS011;441;51.192;6.788;2023-02-01T15:32:47;19.63;;;18.93;;
908;SDS011;441;51.192;6.788;2023-02-01T15:41:05;18.67;;;17.97;;
908;SDS011;441;51.192;6.788;2023-02-01T15:43:36;18.50;;;17.90;;
908;SDS011;441;51.192;6.788;2023-02-01T15:46:06;19.23;;;18.43;;
908;SDS011;441;51.192;6.788;2023-02-01T15:48:37;20.33;;;19.43;;
908;SDS011;441;51.192;6.788;2023-02-01T15:51:16;19.00;;;18.30;;
908;SDS011;441;51.192;6.788;2023-02-01T15:53:45;19.33;;;18.43;;
908;SDS011;441;51.192;6.788;2023-02-01T15:56:14;18.77;;;18.07;;
908;SDS011;441;51.192;6.788;2023-02-01T15:58:42;19.03;;;18.33;;
908;SDS011;441;51.192;6.788;2023-02-01T16:01:14;19.30;;;18.53;;
908;SDS011;441;51.192;6.788;2023-02-01T16:03:41;18.97;;;18.20;;
908;SDS011;441;51.192;6.788;2023-02-01T16:06:10;18.80;;;18.10;;
908;SDS011;441;51.192;6.788;2023-02-01T16:08:50;18.90;;;18.10;;